MMMZMMSD

Guest
Details From MMMZ - GENERAL RAFAEL BUELNA INTL
To MMSD - LOS CABOS INTL
Flight Number -
Tags generated
Created
Modified
Stats Distance 191 nm / 354 km
Max Altitude 16,600 ft / 5,060 m
Waypoints 4
Social Downloads 0
Likes 0
Share VATSIM

Download

Looking for another format? Having issues loading an existing format? Contact us
Advertisement - Login to hide

Notes

Basic altitude profile: - Ascent Rate: 2500ft/min - Ascent Speed: 250kts - Cruise Altitude: 35000ft - Cruise Speed: 420kts - Descent Rate: 1500ft/min - Descent Speed: 250kts Options: - Use NATs: no - Use PACOTS: no - Use low airways: yes - Use high airways: no

Route

MMMZ XONKA V1 SJD MMSD

ID Type Via Altitude Latitude Longitude Leg Dist Tot Dist Heading (true) Name
O MMMZ APT - 0 ft / 0 m 23.16136˚ -106.26470˚ - 0 nm - GENERAL RAFAEL BUELNA INTL
XONKA FIX - 16,600 ft / 5,060 m 23.16394˚ -107.10951˚ 46 nm 46 nm 270° / 270° -
SJD VOR V1 (AWY-LO) 10,000 ft / 3,048 m 23.14616˚ -109.72154˚ 144 nm 190 nm 270° / 269° CABOS VOR-DME
O MMSD APT - 0 ft / 0 m 23.15185˚ -109.72104˚ 0 nm 191 nm 5° / 5° LOS CABOS INTL

Altitude Profile

Advertisement - Login to hide

Weather


0- 5 10 15 20 25 30 35+ Temperature / ° C

Clouds and Precipitation
Forecast for 2017-12-17 06:00 UTC. Updated 38 minutes ago

Ground ~20,000 ft ~40,000 ft Winds

MMMZ

Details ICAO MMMZ (MZT)
Name GENERAL RAFAEL BUELNA INTL
Region Mexico
Timezone America/Mazatlan (UTC-7.0)
Stats Elevation 38 ft / 12 m (AMSL)
Location 23.161355° -106.264697°
Runways 1
Magnetic Variation 7.338° E

METAR

Not found

TAF

TAF MMMZ 170530Z 1706/1812 06005KT P6SM SCT100 SCT200 TX25/1721Z TN15/1712Z FM171800 23010KT P6SM SCT020 SCT200 FM180400 23005KT 6SM HZ BKN200

Decode

Departure Runways

ID Width Length Bearing (true) Bearing (mag) Surface Threshold Offset Overrun Length
08 197 ft / 60 m 8,826 ft / 2,690 m 93.17° 85.83° Asphalt 0 ft / 0 m 175 ft / 53 m
26 197 ft / 60 m 8,826 ft / 2,690 m 273.18° 265.84° Asphalt 0 ft / 0 m 175 ft / 53 m

MMSD

Details ICAO MMSD (SJD)
Name LOS CABOS INTL
Region Mexico
Timezone America/Mazatlan (UTC-7.0)
Stats Elevation 374 ft / 114 m (AMSL)
Location 23.151850° -109.721044°
Runways 1
Magnetic Variation 8.325° E

METAR

MMSD 170449Z 00000KT 12SM FEW040 19/14 A2995 RMK 8/500 CI

Decode

TAF

TAF TAF MMSD 170538Z 1706/1806 30005KT P6SM SCT030 BKN250 FM171600 30010KT P6SM SCT030 SCT100 FM180200 30005KT P6SM SCT250

Decode

Destination Runways

ID Width Length Bearing (true) Bearing (mag) Surface Threshold Offset Overrun Length
16 148 ft / 45 m 9,857 ft / 3,004 m 173.75° 165.42° Asphalt 0 ft / 0 m 215 ft / 66 m
34 148 ft / 45 m 9,857 ft / 3,004 m 353.75° 345.42° Asphalt 0 ft / 0 m 200 ft / 61 m

Popular Alternatives